sensor_id;sensor_type;location;lat;lon;timestamp;P1;durP1;ratioP1;P2;durP2;ratioP2
51292;SDS011;37377;45.186;9.778;2023-08-01T00:00:59;14.23;;;12.93;;
51292;SDS011;37377;45.186;9.778;2023-08-01T00:08:45;18.70;;;14.13;;
51292;SDS011;37377;45.186;9.778;2023-08-01T00:11:25;13.05;;;11.82;;
51292;SDS011;37377;45.186;9.778;2023-08-01T00:14:04;20.33;;;13.63;;
51292;SDS011;37377;45.186;9.778;2023-08-01T00:16:47;15.85;;;12.50;;
51292;SDS011;37377;45.186;9.778;2023-08-01T00:19:56;13.57;;;12.25;;
51292;SDS011;37377;45.186;9.778;2023-08-01T00:23:07;14.00;;;12.55;;
51292;SDS011;37377;45.186;9.778;2023-08-01T00:26:01;14.35;;;12.32;;
51292;SDS011;37377;45.186;9.778;2023-08-01T00:28:57;14.48;;;12.98;;
51292;SDS011;37377;45.186;9.778;2023-08-01T00:33:00;15.57;;;14.13;;
51292;SDS011;37377;45.186;9.778;2023-08-01T00:35:56;16.17;;;14.55;;
51292;SDS011;37377;45.186;9.778;2023-08-01T00:39:42;16.88;;;15.15;;
51292;SDS011;37377;45.186;9.778;2023-08-01T00:43:41;20.30;;;14.50;;
51292;SDS011;37377;45.186;9.778;2023-08-01T00:48:08;14.68;;;13.27;;
51292;SDS011;37377;45.186;9.778;2023-08-01T00:51:05;13.60;;;12.13;;
51292;SDS011;37377;45.186;9.778;2023-08-01T00:54:06;15.02;;;13.48;;
51292;SDS011;37377;45.186;9.778;2023-08-01T00:57:55;13.55;;;11.93;;
51292;SDS011;37377;45.186;9.778;2023-08-01T01:00:23;13.90;;;12.45;;
51292;SDS011;37377;45.186;9.778;2023-08-01T01:02:51;13.48;;;12.07;;
51292;SDS011;37377;45.186;9.778;2023-08-01T01:05:28;14.70;;;11.70;;
51292;SDS011;37377;45.186;9.778;2023-08-01T01:08:52;12.27;;;10.98;;
51292;SDS011;37377;45.186;9.778;2023-08-01T01:11:28;14.55;;;12.57;;
51292;SDS011;37377;45.186;9.778;2023-08-01T01:16:52;13.52;;;12.20;;
51292;SDS011;37377;45.186;9.778;2023-08-01T01:20:34;15.85;;;13.43;;
51292;SDS011;37377;45.186;9.778;2023-08-01T01:23:16;17.48;;;13.15;;
51292;SDS011;37377;45.186;9.778;2023-08-01T01:26:55;17.75;;;13.45;;
51292;SDS011;37377;45.186;9.778;2023-08-01T01:29:35;14.13;;;12.90;;
51292;SDS011;37377;45.186;9.778;2023-08-01T01:32:19;16.98;;;13.55;;
51292;SDS011;37377;45.186;9.778;2023-08-01T01:34:51;16.40;;;13.82;;
51292;SDS011;37377;45.186;9.778;2023-08-01T01:37:51;16.77;;;13.00;;
51292;SDS011;37377;45.186;9.778;2023-08-01T01:40:26;15.40;;;14.02;;
51292;SDS011;37377;45.186;9.778;2023-08-01T01:43:43;15.38;;;13.30;;
51292;SDS011;37377;45.186;9.778;2023-08-01T01:46:36;16.27;;;14.75;;
51292;SDS011;37377;45.186;9.778;2023-08-01T01:56:44;16.83;;;14.90;;
51292;SDS011;37377;45.186;9.778;2023-08-01T02:02:04;17.15;;;15.48;;
51292;SDS011;37377;45.186;9.778;2023-08-01T02:04:54;19.83;;;16.23;;
51292;SDS011;37377;45.186;9.778;2023-08-01T02:08:34;20.55;;;15.75;;
51292;SDS011;37377;45.186;9.778;2023-08-01T02:11:56;19.88;;;17.77;;
51292;SDS011;37377;45.186;9.778;2023-08-01T02:16:28;19.15;;;17.35;;
51292;SDS011;37377;45.186;9.778;2023-08-01T02:19:50;20.05;;;17.40;;
51292;SDS011;37377;45.186;9.778;2023-08-01T02:22:58;23.60;;;17.27;;
51292;SDS011;37377;45.186;9.778;2023-08-01T02:26:26;19.33;;;17.65;;
51292;SDS011;37377;45.186;9.778;2023-08-01T02:30:06;22.40;;;19.35;;
51292;SDS011;37377;45.186;9.778;2023-08-01T02:33:44;21.35;;;19.17;;
51292;SDS011;37377;45.186;9.778;2023-08-01T02:37:21;24.65;;;18.52;;
51292;SDS011;37377;45.186;9.778;2023-08-01T02:41:13;17.98;;;16.15;;
51292;SDS011;37377;45.186;9.778;2023-08-01T02:44:09;19.67;;;15.73;;
51292;SDS011;37377;45.186;9.778;2023-08-01T02:47:51;17.23;;;14.98;;
51292;SDS011;37377;45.186;9.778;2023-08-01T02:50:50;16.13;;;13.95;;
51292;SDS011;37377;45.186;9.778;2023-08-01T02:53:22;14.60;;;13.15;;
51292;SDS011;37377;45.186;9.778;2023-08-01T02:56:12;13.43;;;12.13;;
51292;SDS011;37377;45.186;9.778;2023-08-01T02:59:10;13.38;;;12.13;;
51292;SDS011;37377;45.186;9.778;2023-08-01T03:01:38;14.50;;;12.07;;
51292;SDS011;37377;45.186;9.778;2023-08-01T03:04:33;18.30;;;12.77;;
51292;SDS011;37377;45.186;9.778;2023-08-01T03:07:42;19.42;;;13.18;;
51292;SDS011;37377;45.186;9.778;2023-08-01T03:10:13;17.70;;;12.40;;
51292;SDS011;37377;45.186;9.778;2023-08-01T03:13:03;17.48;;;13.10;;
51292;SDS011;37377;45.186;9.778;2023-08-01T03:18:56;16.23;;;12.73;;
51292;SDS011;37377;45.186;9.778;2023-08-01T03:23:20;16.48;;;13.63;;
51292;SDS011;37377;45.186;9.778;2023-08-01T03:25:50;15.65;;;14.15;;
51292;SDS011;37377;45.186;9.778;2023-08-01T03:29:25;21.63;;;18.25;;
51292;SDS011;37377;45.186;9.778;2023-08-01T03:32:15;16.17;;;14.13;;
51292;SDS011;37377;45.186;9.778;2023-08-01T03:35:31;24.92;;;14.15;;
51292;SDS011;37377;45.186;9.778;2023-08-01T03:37:59;20.60;;;15.90;;
51292;SDS011;37377;45.186;9.778;2023-08-01T03:40:26;16.95;;;15.20;;
51292;SDS011;37377;45.186;9.778;2023-08-01T03:42:55;17.27;;;15.65;;
51292;SDS011;37377;45.186;9.778;2023-08-01T03:45:25;18.83;;;16.73;;
51292;SDS011;37377;45.186;9.778;2023-08-01T03:48:01;20.88;;;16.67;;
51292;SDS011;37377;45.186;9.778;2023-08-01T03:50:32;21.15;;;17.77;;
51292;SDS011;37377;45.186;9.778;2023-08-01T03:53:09;23.98;;;18.23;;
51292;SDS011;37377;45.186;9.778;2023-08-01T03:55:36;25.30;;;18.20;;
51292;SDS011;37377;45.186;9.778;2023-08-01T03:58:03;24.63;;;19.50;;
51292;SDS011;37377;45.186;9.778;2023-08-01T04:00:34;32.47;;;21.70;;
51292;SDS011;37377;45.186;9.778;2023-08-01T04:03:26;30.88;;;23.88;;
51292;SDS011;37377;45.186;9.778;2023-08-01T04:10:27;37.38;;;27.25;;
51292;SDS011;37377;45.186;9.778;2023-08-01T04:14:27;30.73;;;27.52;;
51292;SDS011;37377;45.186;9.778;2023-08-01T04:17:49;34.15;;;30.05;;
51292;SDS011;37377;45.186;9.778;2023-08-01T04:24:41;28.80;;;25.88;;
51292;SDS011;37377;45.186;9.778;2023-08-01T04:27:57;32.28;;;27.23;;
51292;SDS011;37377;45.186;9.778;2023-08-01T04:30:53;32.42;;;26.77;;
51292;SDS011;37377;45.186;9.778;2023-08-01T04:33:42;30.85;;;27.20;;
51292;SDS011;37377;45.186;9.778;2023-08-01T04:37:04;29.67;;;26.38;;
51292;SDS011;37377;45.186;9.778;2023-08-01T04:40:30;33.65;;;30.27;;
51292;SDS011;37377;45.186;9.778;2023-08-01T04:43:18;34.60;;;31.13;;
51292;SDS011;37377;45.186;9.778;2023-08-01T04:45:48;34.08;;;30.35;;
51292;SDS011;37377;45.186;9.778;2023-08-01T04:48:26;42.08;;;31.60;;
51292;SDS011;37377;45.186;9.778;2023-08-01T04:53:27;39.58;;;35.35;;
51292;SDS011;37377;45.186;9.778;2023-08-01T05:02:53;34.75;;;30.98;;
51292;SDS011;37377;45.186;9.778;2023-08-01T05:05:24;31.75;;;26.08;;
51292;SDS011;37377;45.186;9.778;2023-08-01T05:08:04;32.15;;;26.95;;
51292;SDS011;37377;45.186;9.778;2023-08-01T05:10:34;30.23;;;24.33;;
51292;SDS011;37377;45.186;9.778;2023-08-01T05:13:15;30.67;;;24.73;;
51292;SDS011;37377;45.186;9.778;2023-08-01T05:16:13;31.13;;;24.05;;
51292;SDS011;37377;45.186;9.778;2023-08-01T05:18:49;29.33;;;24.33;;
51292;SDS011;37377;45.186;9.778;2023-08-01T05:21:16;25.77;;;23.15;;
51292;SDS011;37377;45.186;9.778;2023-08-01T05:23:44;27.90;;;24.95;;
51292;SDS011;37377;45.186;9.778;2023-08-01T05:26:43;28.00;;;23.77;;
51292;SDS011;37377;45.186;9.778;2023-08-01T05:29:13;25.98;;;23.25;;
51292;SDS011;37377;45.186;9.778;2023-08-01T05:31:44;26.70;;;24.15;;
51292;SDS011;37377;45.186;9.778;2023-08-01T05:34:14;28.23;;;24.95;;
51292;SDS011;37377;45.186;9.778;2023-08-01T05:36:46;31.23;;;25.67;;
51292;SDS011;37377;45.186;9.778;2023-08-01T05:39:20;28.95;;;23.48;;
51292;SDS011;37377;45.186;9.778;2023-08-01T05:41:47;26.73;;;22.65;;
51292;SDS011;37377;45.186;9.778;2023-08-01T05:44:20;27.98;;;22.00;;
51292;SDS011;37377;45.186;9.778;2023-08-01T05:46:49;22.95;;;20.67;;
51292;SDS011;37377;45.186;9.778;2023-08-01T05:49:16;22.63;;;18.65;;
51292;SDS011;37377;45.186;9.778;2023-08-01T05:51:43;34.63;;;17.63;;
51292;SDS011;37377;45.186;9.778;2023-08-01T05:54:10;20.65;;;18.23;;
51292;SDS011;37377;45.186;9.778;2023-08-01T05:56:37;21.95;;;17.15;;
51292;SDS011;37377;45.186;9.778;2023-08-01T05:59:04;20.35;;;17.27;;
51292;SDS011;37377;45.186;9.778;2023-08-01T06:01:31;25.30;;;17.77;;
51292;SDS011;37377;45.186;9.778;2023-08-01T06:03:58;22.30;;;18.65;;
51292;SDS011;37377;45.186;9.778;2023-08-01T06:06:25;23.60;;;18.63;;
51292;SDS011;37377;45.186;9.778;2023-08-01T06:08:52;35.58;;;24.02;;
51292;SDS011;37377;45.186;9.778;2023-08-01T06:11:19;23.35;;;18.63;;
51292;SDS011;37377;45.186;9.778;2023-08-01T06:13:46;25.27;;;19.02;;
51292;SDS011;37377;45.186;9.778;2023-08-01T06:16:13;22.77;;;19.60;;
51292;SDS011;37377;45.186;9.778;2023-08-01T06:18:40;22.98;;;20.05;;
51292;SDS011;37377;45.186;9.778;2023-08-01T06:21:07;29.90;;;19.73;;
51292;SDS011;37377;45.186;9.778;2023-08-01T06:23:36;23.85;;;18.98;;
51292;SDS011;37377;45.186;9.778;2023-08-01T06:26:03;19.40;;;17.23;;
51292;SDS011;37377;45.186;9.778;2023-08-01T06:28:29;33.92;;;18.13;;
51292;SDS011;37377;45.186;9.778;2023-08-01T06:30:57;20.55;;;18.08;;
51292;SDS011;37377;45.186;9.778;2023-08-01T06:33:24;20.50;;;18.42;;
51292;SDS011;37377;45.186;9.778;2023-08-01T06:35:51;28.85;;;19.38;;
51292;SDS011;37377;45.186;9.778;2023-08-01T06:38:17;21.63;;;19.33;;
51292;SDS011;37377;45.186;9.778;2023-08-01T06:40:44;24.63;;;19.65;;
51292;SDS011;37377;45.186;9.778;2023-08-01T06:43:11;36.58;;;19.60;;
51292;SDS011;37377;45.186;9.778;2023-08-01T06:45:37;26.13;;;19.52;;
51292;SDS011;37377;45.186;9.778;2023-08-01T06:48:04;23.58;;;18.40;;
51292;SDS011;37377;45.186;9.778;2023-08-01T06:50:31;27.48;;;18.33;;
51292;SDS011;37377;45.186;9.778;2023-08-01T06:52:58;19.77;;;16.92;;
51292;SDS011;37377;45.186;9.778;2023-08-01T06:55:25;29.30;;;17.13;;
51292;SDS011;37377;45.186;9.778;2023-08-01T06:57:52;24.48;;;17.40;;
51292;SDS011;37377;45.186;9.778;2023-08-01T07:00:19;23.55;;;16.98;;
51292;SDS011;37377;45.186;9.778;2023-08-01T07:02:46;30.45;;;17.23;;
51292;SDS011;37377;45.186;9.778;2023-08-01T07:05:13;30.23;;;16.88;;
51292;SDS011;37377;45.186;9.778;2023-08-01T07:07:40;18.52;;;16.58;;
51292;SDS011;37377;45.186;9.778;2023-08-01T07:10:07;20.90;;;18.23;;
51292;SDS011;37377;45.186;9.778;2023-08-01T07:12:34;23.35;;;17.05;;
51292;SDS011;37377;45.186;9.778;2023-08-01T07:15:01;23.95;;;15.75;;
51292;SDS011;37377;45.186;9.778;2023-08-01T07:17:28;19.63;;;16.27;;
51292;SDS011;37377;45.186;9.778;2023-08-01T07:19:55;22.60;;;16.55;;
51292;SDS011;37377;45.186;9.778;2023-08-01T07:22:22;23.08;;;17.15;;
51292;SDS011;37377;45.186;9.778;2023-08-01T07:24:52;16.95;;;14.82;;
51292;SDS011;37377;45.186;9.778;2023-08-01T07:27:20;17.80;;;14.18;;
51292;SDS011;37377;45.186;9.778;2023-08-01T07:29:47;22.63;;;14.13;;
51292;SDS011;37377;45.186;9.778;2023-08-01T07:32:14;21.00;;;13.13;;
51292;SDS011;37377;45.186;9.778;2023-08-01T07:34:41;20.65;;;13.70;;
51292;SDS011;37377;45.186;9.778;2023-08-01T07:37:08;19.40;;;13.38;;
51292;SDS011;37377;45.186;9.778;2023-08-01T07:39:35;18.98;;;11.00;;
51292;SDS011;37377;45.186;9.778;2023-08-01T07:42:02;15.40;;;9.88;;
51292;SDS011;37377;45.186;9.778;2023-08-01T07:44:30;19.35;;;9.30;;
51292;SDS011;37377;45.186;9.778;2023-08-01T07:46:57;16.27;;;10.50;;
51292;SDS011;37377;45.186;9.778;2023-08-01T07:49:24;10.77;;;9.07;;
51292;SDS011;37377;45.186;9.778;2023-08-01T07:51:51;13.27;;;9.98;;
51292;SDS011;37377;45.186;9.778;2023-08-01T07:54:18;15.00;;;8.80;;
51292;SDS011;37377;45.186;9.778;2023-08-01T07:56:45;14.35;;;8.13;;
51292;SDS011;37377;45.186;9.778;2023-08-01T07:59:15;11.13;;;7.70;;
51292;SDS011;37377;45.186;9.778;2023-08-01T08:01:42;11.52;;;7.68;;
51292;SDS011;37377;45.186;9.778;2023-08-01T08:04:09;12.00;;;8.43;;
51292;SDS011;37377;45.186;9.778;2023-08-01T08:06:36;11.05;;;8.63;;
51292;SDS011;37377;45.186;9.778;2023-08-01T08:09:04;26.60;;;8.40;;
51292;SDS011;37377;45.186;9.778;2023-08-01T08:11:30;28.50;;;9.43;;
51292;SDS011;37377;45.186;9.778;2023-08-01T08:13:57;21.08;;;9.52;;
51292;SDS011;37377;45.186;9.778;2023-08-01T08:16:24;13.95;;;8.27;;
51292;SDS011;37377;45.186;9.778;2023-08-01T08:18:51;17.98;;;8.30;;
51292;SDS011;37377;45.186;9.778;2023-08-01T08:21:18;11.85;;;8.43;;
51292;SDS011;37377;45.186;9.778;2023-08-01T08:23:45;12.65;;;8.95;;
51292;SDS011;37377;45.186;9.778;2023-08-01T08:26:11;21.73;;;10.07;;
51292;SDS011;37377;45.186;9.778;2023-08-01T08:28:38;17.45;;;9.10;;
51292;SDS011;37377;45.186;9.778;2023-08-01T08:31:06;24.63;;;8.55;;
51292;SDS011;37377;45.186;9.778;2023-08-01T08:33:33;22.60;;;10.25;;
51292;SDS011;37377;45.186;9.778;2023-08-01T08:36:00;33.15;;;9.93;;
51292;SDS011;37377;45.186;9.778;2023-08-01T08:38:26;18.20;;;10.25;;
51292;SDS011;37377;45.186;9.778;2023-08-01T08:40:57;19.15;;;10.45;;
51292;SDS011;37377;45.186;9.778;2023-08-01T08:43:32;19.52;;;9.65;;
51292;SDS011;37377;45.186;9.778;2023-08-01T08:46:00;15.10;;;10.25;;
51292;SDS011;37377;45.186;9.778;2023-08-01T08:48:28;14.05;;;9.80;;
51292;SDS011;37377;45.186;9.778;2023-08-01T08:50:59;21.83;;;11.05;;
51292;SDS011;37377;45.186;9.778;2023-08-01T08:53:27;16.70;;;9.65;;
51292;SDS011;37377;45.186;9.778;2023-08-01T08:55:54;16.02;;;10.35;;
51292;SDS011;37377;45.186;9.778;2023-08-01T08:58:21;16.30;;;10.35;;
51292;SDS011;37377;45.186;9.778;2023-08-01T09:00:49;12.52;;;9.18;;
51292;SDS011;37377;45.186;9.778;2023-08-01T09:03:16;22.40;;;7.07;;
51292;SDS011;37377;45.186;9.778;2023-08-01T09:05:44;8.63;;;7.72;;
51292;SDS011;37377;45.186;9.778;2023-08-01T09:08:32;17.90;;;8.55;;
51292;SDS011;37377;45.186;9.778;2023-08-01T09:11:03;16.10;;;9.13;;
51292;SDS011;37377;45.186;9.778;2023-08-01T09:13:30;13.60;;;8.13;;
51292;SDS011;37377;45.186;9.778;2023-08-01T09:15:57;23.02;;;9.30;;
51292;SDS011;37377;45.186;9.778;2023-08-01T09:18:24;20.02;;;8.32;;
51292;SDS011;37377;45.186;9.778;2023-08-01T09:20:52;14.45;;;7.90;;
51292;SDS011;37377;45.186;9.778;2023-08-01T09:23:19;14.45;;;8.13;;
51292;SDS011;37377;45.186;9.778;2023-08-01T09:25:45;15.82;;;8.05;;
51292;SDS011;37377;45.186;9.778;2023-08-01T09:28:20;16.27;;;9.05;;
51292;SDS011;37377;45.186;9.778;2023-08-01T09:30:52;9.68;;;7.60;;
51292;SDS011;37377;45.186;9.778;2023-08-01T09:33:24;16.15;;;8.60;;
51292;SDS011;37377;45.186;9.778;2023-08-01T09:35:51;30.90;;;10.05;;
51292;SDS011;37377;45.186;9.778;2023-08-01T09:38:19;20.50;;;8.63;;
51292;SDS011;37377;45.186;9.778;2023-08-01T09:40:47;10.70;;;7.85;;
51292;SDS011;37377;45.186;9.778;2023-08-01T09:43:15;16.75;;;7.55;;
51292;SDS011;37377;45.186;9.778;2023-08-01T09:45:54;15.00;;;7.50;;
51292;SDS011;37377;45.186;9.778;2023-08-01T09:48:27;14.98;;;7.25;;
51292;SDS011;37377;45.186;9.778;2023-08-01T09:53:32;11.50;;;7.13;;
51292;SDS011;37377;45.186;9.778;2023-08-01T09:56:02;7.03;;;5.75;;
51292;SDS011;37377;45.186;9.778;2023-08-01T09:58:33;15.63;;;6.72;;
51292;SDS011;37377;45.186;9.778;2023-08-01T10:01:01;11.52;;;6.85;;
51292;SDS011;37377;45.186;9.778;2023-08-01T10:03:28;14.65;;;7.07;;
51292;SDS011;37377;45.186;9.778;2023-08-01T10:05:56;20.70;;;6.03;;
51292;SDS011;37377;45.186;9.778;2023-08-01T10:08:23;10.65;;;5.32;;
51292;SDS011;37377;45.186;9.778;2023-08-01T10:10:50;19.70;;;5.20;;
51292;SDS011;37377;45.186;9.778;2023-08-01T10:13:19;11.75;;;5.03;;
51292;SDS011;37377;45.186;9.778;2023-08-01T10:15:47;9.77;;;4.00;;
51292;SDS011;37377;45.186;9.778;2023-08-01T10:18:14;8.77;;;4.25;;
51292;SDS011;37377;45.186;9.778;2023-08-01T10:20:42;6.68;;;4.18;;
51292;SDS011;37377;45.186;9.778;2023-08-01T10:23:09;10.13;;;4.22;;
51292;SDS011;37377;45.186;9.778;2023-08-01T10:25:37;10.27;;;5.10;;
51292;SDS011;37377;45.186;9.778;2023-08-01T10:28:06;8.40;;;4.35;;
51292;SDS011;37377;45.186;9.778;2023-08-01T10:30:33;13.10;;;4.20;;
51292;SDS011;37377;45.186;9.778;2023-08-01T10:33:01;8.10;;;3.75;;
51292;SDS011;37377;45.186;9.778;2023-08-01T10:35:31;7.40;;;3.45;;
51292;SDS011;37377;45.186;9.778;2023-08-01T10:40:41;15.20;;;4.22;;
51292;SDS011;37377;45.186;9.778;2023-08-01T10:43:19;12.30;;;3.72;;
51292;SDS011;37377;45.186;9.778;2023-08-01T10:45:47;8.32;;;3.75;;
51292;SDS011;37377;45.186;9.778;2023-08-01T10:48:14;7.07;;;3.53;;
51292;SDS011;37377;45.186;9.778;2023-08-01T10:50:41;7.72;;;3.60;;
51292;SDS011;37377;45.186;9.778;2023-08-01T10:53:08;8.18;;;3.95;;
51292;SDS011;37377;45.186;9.778;2023-08-01T10:55:43;7.75;;;3.33;;
51292;SDS011;37377;45.186;9.778;2023-08-01T10:58:12;7.22;;;3.50;;
51292;SDS011;37377;45.186;9.778;2023-08-01T11:00:39;14.27;;;3.85;;
51292;SDS011;37377;45.186;9.778;2023-08-01T11:03:08;11.13;;;4.70;;
51292;SDS011;37377;45.186;9.778;2023-08-01T11:05:35;11.27;;;4.38;;
51292;SDS011;37377;45.186;9.778;2023-08-01T11:08:02;8.23;;;4.32;;
51292;SDS011;37377;45.186;9.778;2023-08-01T11:10:30;9.80;;;4.82;;
51292;SDS011;37377;45.186;9.778;2023-08-01T11:12:58;8.63;;;4.18;;
51292;SDS011;37377;45.186;9.778;2023-08-01T11:15:26;10.55;;;5.38;;
51292;SDS011;37377;45.186;9.778;2023-08-01T11:17:53;10.38;;;5.13;;
51292;SDS011;37377;45.186;9.778;2023-08-01T11:20:21;9.15;;;5.10;;
51292;SDS011;37377;45.186;9.778;2023-08-01T11:22:54;11.18;;;5.07;;
51292;SDS011;37377;45.186;9.778;2023-08-01T11:25:41;11.30;;;5.25;;
51292;SDS011;37377;45.186;9.778;2023-08-01T11:28:10;9.82;;;4.68;;
51292;SDS011;37377;45.186;9.778;2023-08-01T11:30:38;8.75;;;5.50;;
51292;SDS011;37377;45.186;9.778;2023-08-01T11:33:39;9.57;;;4.43;;
51292;SDS011;37377;45.186;9.778;2023-08-01T11:35:58;13.07;;;5.28;;
51292;SDS011;37377;45.186;9.778;2023-08-01T11:38:27;9.73;;;4.63;;
51292;SDS011;37377;45.186;9.778;2023-08-01T11:41:05;9.95;;;5.13;;
51292;SDS011;37377;45.186;9.778;2023-08-01T11:43:38;12.95;;;4.93;;
51292;SDS011;37377;45.186;9.778;2023-08-01T11:46:06;9.15;;;5.28;;
51292;SDS011;37377;45.186;9.778;2023-08-01T11:48:33;9.48;;;4.78;;
51292;SDS011;37377;45.186;9.778;2023-08-01T11:51:00;8.70;;;4.70;;
51292;SDS011;37377;45.186;9.778;2023-08-01T11:53:27;9.77;;;4.57;;
51292;SDS011;37377;45.186;9.778;2023-08-01T11:55:55;15.70;;;4.88;;
51292;SDS011;37377;45.186;9.778;2023-08-01T12:01:05;17.00;;;4.43;;
51292;SDS011;37377;45.186;9.778;2023-08-01T12:04:09;6.70;;;4.03;;
51292;SDS011;37377;45.186;9.778;2023-08-01T12:06:30;13.02;;;4.10;;
51292;SDS011;37377;45.186;9.778;2023-08-01T12:09:11;9.68;;;4.25;;
51292;SDS011;37377;45.186;9.778;2023-08-01T12:11:40;10.70;;;3.70;;
51292;SDS011;37377;45.186;9.778;2023-08-01T12:14:09;9.77;;;5.18;;
51292;SDS011;37377;45.186;9.778;2023-08-01T12:16:43;8.27;;;5.10;;
51292;SDS011;37377;45.186;9.778;2023-08-01T12:19:16;10.48;;;5.57;;
51292;SDS011;37377;45.186;9.778;2023-08-01T12:21:44;10.98;;;3.83;;
51292;SDS011;37377;45.186;9.778;2023-08-01T12:24:11;7.53;;;4.28;;
51292;SDS011;37377;45.186;9.778;2023-08-01T12:26:37;10.48;;;3.95;;
51292;SDS011;37377;45.186;9.778;2023-08-01T12:29:05;8.20;;;3.58;;
51292;SDS011;37377;45.186;9.778;2023-08-01T12:31:31;8.57;;;3.70;;
51292;SDS011;37377;45.186;9.778;2023-08-01T12:33:58;9.63;;;4.00;;
51292;SDS011;37377;45.186;9.778;2023-08-01T12:36:25;7.20;;;3.83;;
51292;SDS011;37377;45.186;9.778;2023-08-01T12:38:52;6.15;;;4.32;;
51292;SDS011;37377;45.186;9.778;2023-08-01T12:41:19;9.77;;;3.88;;
51292;SDS011;37377;45.186;9.778;2023-08-01T12:43:46;11.25;;;4.50;;
51292;SDS011;37377;45.186;9.778;2023-08-01T12:46:13;7.25;;;4.40;;
51292;SDS011;37377;45.186;9.778;2023-08-01T12:48:39;6.72;;;4.10;;
51292;SDS011;37377;45.186;9.778;2023-08-01T12:51:07;11.25;;;4.18;;
51292;SDS011;37377;45.186;9.778;2023-08-01T12:53:36;6.90;;;4.15;;
51292;SDS011;37377;45.186;9.778;2023-08-01T12:56:08;10.45;;;4.32;;
51292;SDS011;37377;45.186;9.778;2023-08-01T12:58:36;14.20;;;3.92;;
51292;SDS011;37377;45.186;9.778;2023-08-01T13:01:04;25.35;;;4.30;;
51292;SDS011;37377;45.186;9.778;2023-08-01T13:03:33;15.35;;;3.67;;
51292;SDS011;37377;45.186;9.778;2023-08-01T13:06:00;7.22;;;4.00;;
51292;SDS011;37377;45.186;9.778;2023-08-01T13:08:27;12.95;;;4.30;;
51292;SDS011;37377;45.186;9.778;2023-08-01T13:10:55;11.73;;;4.25;;
51292;SDS011;37377;45.186;9.778;2023-08-01T13:13:23;13.20;;;4.35;;
51292;SDS011;37377;45.186;9.778;2023-08-01T13:15:49;8.43;;;4.57;;
51292;SDS011;37377;45.186;9.778;2023-08-01T13:18:16;11.65;;;4.97;;
51292;SDS011;37377;45.186;9.778;2023-08-01T13:20:44;10.73;;;4.65;;
51292;SDS011;37377;45.186;9.778;2023-08-01T13:23:11;14.55;;;5.03;;
51292;SDS011;37377;45.186;9.778;2023-08-01T13:25:37;11.50;;;4.32;;
51292;SDS011;37377;45.186;9.778;2023-08-01T13:28:04;15.85;;;4.93;;
51292;SDS011;37377;45.186;9.778;2023-08-01T13:30:31;18.17;;;4.50;;
51292;SDS011;37377;45.186;9.778;2023-08-01T13:32:58;9.95;;;4.65;;
51292;SDS011;37377;45.186;9.778;2023-08-01T13:35:24;12.50;;;4.80;;
51292;SDS011;37377;45.186;9.778;2023-08-01T13:37:51;12.60;;;4.85;;
51292;SDS011;37377;45.186;9.778;2023-08-01T13:40:18;11.65;;;4.65;;
51292;SDS011;37377;45.186;9.778;2023-08-01T13:42:47;63.47;;;5.95;;
51292;SDS011;37377;45.186;9.778;2023-08-01T13:45:14;7.43;;;4.18;;
51292;SDS011;37377;45.186;9.778;2023-08-01T13:47:41;16.00;;;4.53;;
51292;SDS011;37377;45.186;9.778;2023-08-01T13:50:08;14.60;;;4.57;;
51292;SDS011;37377;45.186;9.778;2023-08-01T13:52:38;9.55;;;4.55;;
51292;SDS011;37377;45.186;9.778;2023-08-01T13:55:05;12.13;;;4.32;;
51292;SDS011;37377;45.186;9.778;2023-08-01T13:57:34;8.02;;;4.75;;
51292;SDS011;37377;45.186;9.778;2023-08-01T14:00:01;14.13;;;5.82;;
51292;SDS011;37377;45.186;9.778;2023-08-01T14:02:41;16.48;;;9.55;;
51292;SDS011;37377;45.186;9.778;2023-08-01T14:05:08;12.73;;;5.15;;
51292;SDS011;37377;45.186;9.778;2023-08-01T14:07:35;8.57;;;5.68;;
51292;SDS011;37377;45.186;9.778;2023-08-01T14:10:09;11.35;;;5.03;;
51292;SDS011;37377;45.186;9.778;2023-08-01T14:12:36;17.27;;;5.68;;
51292;SDS011;37377;45.186;9.778;2023-08-01T14:15:03;11.98;;;4.68;;
51292;SDS011;37377;45.186;9.778;2023-08-01T14:17:30;15.20;;;5.82;;
51292;SDS011;37377;45.186;9.778;2023-08-01T14:19:57;9.23;;;4.88;;
51292;SDS011;37377;45.186;9.778;2023-08-01T14:22:25;12.45;;;4.78;;
51292;SDS011;37377;45.186;9.778;2023-08-01T14:24:52;10.48;;;4.88;;
51292;SDS011;37377;45.186;9.778;2023-08-01T14:27:19;15.63;;;5.22;;
51292;SDS011;37377;45.186;9.778;2023-08-01T14:29:46;15.07;;;5.28;;
51292;SDS011;37377;45.186;9.778;2023-08-01T14:32:13;14.73;;;5.28;;
51292;SDS011;37377;45.186;9.778;2023-08-01T14:34:42;16.60;;;5.00;;
51292;SDS011;37377;45.186;9.778;2023-08-01T14:37:09;13.23;;;5.72;;
51292;SDS011;37377;45.186;9.778;2023-08-01T14:39:36;12.55;;;4.78;;
51292;SDS011;37377;45.186;9.778;2023-08-01T14:42:03;17.45;;;5.43;;
51292;SDS011;37377;45.186;9.778;2023-08-01T14:44:31;20.85;;;5.68;;
51292;SDS011;37377;45.186;9.778;2023-08-01T14:46:58;12.20;;;4.75;;
51292;SDS011;37377;45.186;9.778;2023-08-01T14:49:25;12.07;;;4.95;;
51292;SDS011;37377;45.186;9.778;2023-08-01T14:51:55;13.73;;;4.75;;
51292;SDS011;37377;45.186;9.778;2023-08-01T14:54:22;11.07;;;5.47;;
51292;SDS011;37377;45.186;9.778;2023-08-01T14:57:06;7.47;;;4.82;;
51292;SDS011;37377;45.186;9.778;2023-08-01T14:59:33;18.58;;;5.60;;
51292;SDS011;37377;45.186;9.778;2023-08-01T15:02:00;23.45;;;5.50;;
51292;SDS011;37377;45.186;9.778;2023-08-01T15:04:28;12.05;;;5.85;;
51292;SDS011;37377;45.186;9.778;2023-08-01T15:06:55;12.85;;;5.20;;
51292;SDS011;37377;45.186;9.778;2023-08-01T15:09:21;21.08;;;5.97;;
51292;SDS011;37377;45.186;9.778;2023-08-01T15:11:48;22.42;;;5.63;;
51292;SDS011;37377;45.186;9.778;2023-08-01T15:14:15;14.35;;;6.00;;
51292;SDS011;37377;45.186;9.778;2023-08-01T15:16:42;17.50;;;6.80;;
51292;SDS011;37377;45.186;9.778;2023-08-01T15:19:09;10.32;;;6.45;;
51292;SDS011;37377;45.186;9.778;2023-08-01T15:21:36;16.70;;;6.00;;
51292;SDS011;37377;45.186;9.778;2023-08-01T15:24:03;14.38;;;6.93;;
51292;SDS011;37377;45.186;9.778;2023-08-01T15:26:31;23.10;;;6.25;;
51292;SDS011;37377;45.186;9.778;2023-08-01T15:28:57;11.57;;;5.30;;
51292;SDS011;37377;45.186;9.778;2023-08-01T15:31:24;13.93;;;5.30;;
51292;SDS011;37377;45.186;9.778;2023-08-01T15:33:51;14.40;;;5.13;;
51292;SDS011;37377;45.186;9.778;2023-08-01T15:36:18;9.15;;;5.53;;
51292;SDS011;37377;45.186;9.778;2023-08-01T15:38:52;14.60;;;5.20;;
51292;SDS011;37377;45.186;9.778;2023-08-01T15:41:19;16.63;;;8.48;;
51292;SDS011;37377;45.186;9.778;2023-08-01T15:43:46;18.92;;;5.75;;
51292;SDS011;37377;45.186;9.778;2023-08-01T15:46:13;12.15;;;5.70;;
51292;SDS011;37377;45.186;9.778;2023-08-01T15:48:40;29.05;;;5.57;;
51292;SDS011;37377;45.186;9.778;2023-08-01T15:51:07;15.55;;;5.13;;
51292;SDS011;37377;45.186;9.778;2023-08-01T15:53:34;19.70;;;5.60;;
51292;SDS011;37377;45.186;9.778;2023-08-01T15:56:03;12.25;;;4.95;;
51292;SDS011;37377;45.186;9.778;2023-08-01T15:58:31;8.00;;;5.97;;
51292;SDS011;37377;45.186;9.778;2023-08-01T16:00:59;9.13;;;4.82;;
51292;SDS011;37377;45.186;9.778;2023-08-01T16:03:27;14.35;;;6.32;;
51292;SDS011;37377;45.186;9.778;2023-08-01T16:05:54;10.10;;;4.68;;
51292;SDS011;37377;45.186;9.778;2023-08-01T16:08:22;24.20;;;6.07;;
51292;SDS011;37377;45.186;9.778;2023-08-01T16:10:48;10.13;;;5.20;;
51292;SDS011;37377;45.186;9.778;2023-08-01T16:13:15;19.52;;;5.28;;